Time;durP1;ratioP1;P1;durP2;ratioP2;P2;SDS_P1;SDS_P2;PMS_P1;PMS_P2;Temp;Humidity;BMP_temperature;BMP_pressure;BME280_temperature;BME280_humidity;BME280_pressure;Samples;Min_cycle;Max_cycle;Signal;HPM_P1;HPM_P2
2024/01/07 00:01:23;;;;;;;11.40;5.63;;;;;;;-1.15;100.00;102000.34;5018291;28;20080;-73
2024/01/07 00:04:09;;;;;;;11.23;5.60;;;;;;;-1.16;100.00;102011.56;5028124;28;20076;-73
2024/01/07 00:06:55;;;;;;;13.80;5.82;;;;;;;-1.17;100.00;102013.28;5010832;28;20166;-74
2024/01/07 00:09:41;;;;;;;11.93;6.05;;;;;;;-1.15;100.00;102010.75;5018330;28;20045;-73
2024/01/07 00:12:29;;;;;;;11.50;5.88;;;;;;;-1.17;100.00;102021.09;5018207;28;20136;-73
2024/01/07 00:15:16;;;;;;;9.88;5.30;;;;;;;-1.17;100.00;102034.09;5032225;28;20073;-71
2024/01/07 00:18:02;;;;;;;12.13;5.72;;;;;;;-1.16;100.00;102034.94;5023906;28;20041;-73
2024/01/07 00:20:48;;;;;;;12.35;6.80;;;;;;;-1.19;100.00;102040.09;5021915;28;20107;-73
2024/01/07 00:23:34;;;;;;;12.45;5.75;;;;;;;-1.21;100.00;102046.97;5023174;28;20118;-73
2024/01/07 00:26:19;;;;;;;12.18;5.10;;;;;;;-1.20;100.00;102051.34;5029962;28;20578;-73
2024/01/07 00:29:05;;;;;;;12.43;5.95;;;;;;;-1.20;100.00;102053.94;5029363;28;21820;-73
2024/01/07 00:31:51;;;;;;;13.38;6.25;;;;;;;-1.20;100.00;102057.41;5004977;28;20106;-73
2024/01/07 00:34:37;;;;;;;11.88;6.10;;;;;;;-1.22;100.00;102053.88;5019905;28;20061;-72
2024/01/07 00:37:22;;;;;;;10.05;6.13;;;;;;;-1.25;100.00;102052.09;5018797;28;20107;-74
2024/01/07 00:40:09;;;;;;;11.38;5.95;;;;;;;-1.26;100.00;102057.25;5023995;28;20033;-74
2024/01/07 00:42:55;;;;;;;11.07;5.78;;;;;;;-1.25;100.00;102062.50;5025033;28;20041;-74
2024/01/07 00:45:41;;;;;;;9.98;5.35;;;;;;;-1.24;100.00;102065.97;5025590;28;20341;-73
2024/01/07 00:48:32;;;;;;;11.45;6.38;;;;;;;-1.27;100.00;102064.19;5024058;28;20109;-73
2024/01/07 00:51:18;;;;;;;11.95;6.05;;;;;;;-1.28;100.00;102061.53;4994836;28;20045;-74
2024/01/07 00:54:04;;;;;;;9.73;5.78;;;;;;;-1.25;100.00;102070.28;5014545;28;20045;-73
2024/01/07 00:56:50;;;;;;;10.75;5.80;;;;;;;-1.28;100.00;102072.81;5033272;28;21265;-74
2024/01/07 00:59:36;;;;;;;11.10;5.80;;;;;;;-1.29;100.00;102068.47;5052110;28;20064;-73
2024/01/07 01:02:22;;;;;;;9.73;5.65;;;;;;;-1.29;100.00;102077.97;5060064;28;20179;-73
2024/01/07 01:05:11;;;;;;;11.38;5.50;;;;;;;-1.33;100.00;102082.22;5060152;28;20056;-73
2024/01/07 01:07:56;;;;;;;10.63;5.18;;;;;;;-1.36;100.00;102082.16;5048364;28;21529;-73
2024/01/07 01:10:42;;;;;;;10.18;5.55;;;;;;;-1.35;100.00;102085.63;5058698;28;20040;-73
2024/01/07 01:13:28;;;;;;;7.85;5.15;;;;;;;-1.37;100.00;102088.19;5056993;28;20411;-74
2024/01/07 01:16:14;;;;;;;10.63;5.63;;;;;;;-1.37;100.00;102085.59;5057851;28;20043;-74
2024/01/07 01:19:00;;;;;;;9.15;4.78;;;;;;;-1.39;100.00;102085.56;5069945;28;20056;-72
2024/01/07 01:21:45;;;;;;;11.68;5.72;;;;;;;-1.38;100.00;102081.22;5065264;28;20059;-73
2024/01/07 01:24:37;;;;;;;10.43;5.28;;;;;;;-1.39;100.00;102092.47;5065329;28;20040;-73
2024/01/07 01:27:23;;;;;;;12.38;6.10;;;;;;;-1.44;100.00;102092.38;5065322;28;20051;-73
2024/01/07 01:30:13;;;;;;;12.02;5.80;;;;;;;-1.43;100.00;102099.31;5064935;28;20136;-73
2024/01/07 01:32:59;;;;;;;9.50;5.53;;;;;;;-1.42;100.00;102100.22;5046380;28;20108;-73
2024/01/07 01:35:44;;;;;;;10.52;5.78;;;;;;;-1.42;100.00;102101.06;5047341;28;20736;-73
2024/01/07 01:38:33;;;;;;;12.50;5.60;;;;;;;-1.42;100.00;102106.25;5062366;28;20063;-73
2024/01/07 01:41:19;;;;;;;11.32;5.93;;;;;;;-1.43;100.00;102114.91;5062301;28;20045;-72
2024/01/07 01:44:05;;;;;;;11.57;5.85;;;;;;;-1.40;100.00;102114.09;5062540;28;20044;-72
2024/01/07 01:46:50;;;;;;;12.63;5.47;;;;;;;-1.40;100.00;102117.59;5063193;28;20055;-72
2024/01/07 01:49:37;;;;;;;10.77;5.75;;;;;;;-1.41;100.00;102121.00;5048329;28;20041;-73
2024/01/07 01:52:24;;;;;;;14.38;5.80;;;;;;;-1.40;100.00;102122.78;5043764;28;20056;-73
2024/01/07 01:55:10;;;;;;;10.48;5.70;;;;;;;-1.40;100.00;102128.00;5049605;28;20136;-73
2024/01/07 01:57:56;;;;;;;11.98;5.90;;;;;;;-1.39;100.00;102126.25;5058386;28;20048;-74
2024/01/07 02:00:42;;;;;;;16.15;6.30;;;;;;;-1.39;100.00;102132.34;5047157;28;20040;-73
2024/01/07 02:03:30;;;;;;;12.48;6.38;;;;;;;-1.38;100.00;102138.41;5043028;28;20483;-72
2024/01/07 02:06:16;;;;;;;13.88;5.70;;;;;;;-1.37;100.00;102134.94;5047501;28;20052;-73
2024/01/07 02:09:02;;;;;;;10.02;5.40;;;;;;;-1.35;100.00;102142.78;5034663;28;20048;-73
2024/01/07 02:12:02;;;;;;;11.18;5.57;;;;;;;-1.33;100.00;102139.41;5036500;28;20420;-73
2024/01/07 02:14:47;;;;;;;13.13;5.88;;;;;;;-1.30;100.00;102141.19;5010271;28;20037;-74
2024/01/07 02:17:33;;;;;;;9.20;5.35;;;;;;;-1.35;100.00;102151.47;5032166;28;20044;-73
2024/01/07 02:20:19;;;;;;;10.30;5.35;;;;;;;-1.35;100.00;102148.88;5057258;28;20167;-72
2024/01/07 02:23:05;;;;;;;11.90;5.15;;;;;;;-1.35;100.00;102151.47;5057486;28;20055;-72
2024/01/07 02:25:51;;;;;;;9.63;5.13;;;;;;;-1.34;100.00;102161.03;5058899;28;20040;-73
2024/01/07 02:28:37;;;;;;;9.13;4.82;;;;;;;-1.35;100.00;102156.69;5046863;28;20075;-72
2024/01/07 02:31:22;;;;;;;10.93;5.70;;;;;;;-1.38;100.00;102159.19;5035644;28;20407;-73
2024/01/07 02:34:11;;;;;;;12.73;5.25;;;;;;;-1.38;100.00;102159.19;5027373;28;20052;-73
2024/01/07 02:36:57;;;;;;;12.63;5.43;;;;;;;-1.42;100.00;102163.44;5048299;28;20048;-73
2024/01/07 02:39:44;;;;;;;9.88;4.88;;;;;;;-1.42;100.00;102163.44;5054460;28;20107;-73
2024/01/07 02:42:30;;;;;;;12.10;5.80;;;;;;;-1.42;100.00;102162.56;5044500;28;20040;-72
2024/01/07 02:45:20;;;;;;;11.15;5.13;;;;;;;-1.42;100.00;102159.97;5059306;28;20117;-74
2024/01/07 02:48:06;;;;;;;11.45;4.80;;;;;;;-1.42;100.00;102167.75;5036785;28;20044;-73
2024/01/07 02:50:52;;;;;;;7.55;4.45;;;;;;;-1.42;100.00;102178.16;5055214;28;20078;-73
2024/01/07 02:53:40;;;;;;;7.88;4.68;;;;;;;-1.41;100.00;102182.50;5041874;28;20687;-73
2024/01/07 02:56:26;;;;;;;9.82;4.72;;;;;;;-1.41;100.00;102166.91;5041294;28;20119;-73
2024/01/07 02:59:12;;;;;;;8.02;4.80;;;;;;;-1.43;100.00;102166.88;5058704;28;20039;-74
2024/01/07 03:01:57;;;;;;;11.88;4.32;;;;;;;-1.41;100.00;102183.38;5039304;28;20045;-73
2024/01/07 03:04:43;;;;;;;8.98;4.60;;;;;;;-1.38;100.00;102179.97;5050161;28;20056;-73
2024/01/07 03:07:29;;;;;;;7.90;4.18;;;;;;;-1.40;100.00;102192.06;5052137;28;20052;-73
2024/01/07 03:10:15;;;;;;;7.18;3.60;;;;;;;-1.45;100.00;102184.16;5049853;28;20051;-74
2024/01/07 03:13:01;;;;;;;9.13;4.55;;;;;;;-1.46;100.00;102197.09;5056552;28;20035;-72
2024/01/07 03:15:47;;;;;;;9.15;4.43;;;;;;;-1.50;100.00;102201.31;5055070;28;20741;-73
2024/01/07 03:18:32;;;;;;;7.97;4.10;;;;;;;-1.53;100.00;102202.13;5041579;28;20459;-73
2024/01/07 03:21:21;;;;;;;8.15;4.30;;;;;;;-1.53;100.00;102204.72;5042472;28;20055;-73
2024/01/07 03:24:07;;;;;;;7.40;4.40;;;;;;;-1.49;100.00;102213.47;5056059;28;20084;-73
2024/01/07 03:26:53;;;;;;;8.20;4.13;;;;;;;-1.50;100.00;102209.13;5048567;28;20044;-74
2024/01/07 03:29:39;;;;;;;10.48;4.30;;;;;;;-1.51;100.00;102212.56;5054828;28;20049;-73
2024/01/07 03:32:25;;;;;;;7.50;4.25;;;;;;;-1.48;100.00;102211.75;5048859;28;20055;-73
2024/01/07 03:35:11;;;;;;;6.95;3.88;;;;;;;-1.48;100.00;102214.38;5052873;28;20040;-73
2024/01/07 03:37:56;;;;;;;9.23;4.05;;;;;;;-1.47;100.00;102216.13;5055964;28;20037;-73
2024/01/07 03:40:42;;;;;;;7.68;4.00;;;;;;;-1.46;100.00;102218.78;5058284;28;20091;-73
2024/01/07 03:43:28;;;;;;;5.38;3.25;;;;;;;-1.44;100.00;102223.97;5054971;28;20106;-72
2024/01/07 03:46:14;;;;;;;9.05;3.58;;;;;;;-1.42;100.00;102224.94;5057701;28;20045;-72
2024/01/07 03:49:00;;;;;;;5.88;3.33;;;;;;;-1.41;100.00;102226.69;5053608;28;20041;-73
2024/01/07 03:51:46;;;;;;;8.20;3.85;;;;;;;-1.43;100.00;102225.72;5049414;28;20055;-73
2024/01/07 03:54:32;;;;;;;6.22;3.33;;;;;;;-1.42;100.00;102243.13;5055361;28;20044;-73
2024/01/07 03:57:18;;;;;;;6.43;3.42;;;;;;;-1.41;100.00;102247.47;5044921;28;20043;-74
2024/01/07 04:00:04;;;;;;;5.88;3.13;;;;;;;-1.39;100.00;102245.78;5050625;28;20068;-72
2024/01/07 04:02:50;;;;;;;6.03;3.47;;;;;;;-1.38;100.00;102244.94;5053919;28;20059;-72
2024/01/07 04:05:36;;;;;;;6.63;3.25;;;;;;;-1.40;100.00;102250.13;5052440;28;20048;-73
2024/01/07 04:08:22;;;;;;;6.28;3.15;;;;;;;-1.36;100.00;102256.28;5040706;28;20040;-74
2024/01/07 04:11:07;;;;;;;6.28;3.45;;;;;;;-1.37;100.00;102255.38;5056617;28;20119;-74
2024/01/07 04:13:53;;;;;;;6.00;3.10;;;;;;;-1.34;100.00;102254.59;5054367;28;20040;-74
2024/01/07 04:16:39;;;;;;;4.68;2.90;;;;;;;-1.35;100.00;102258.03;5046018;28;20052;-73
2024/01/07 04:19:25;;;;;;;6.07;3.35;;;;;;;-1.35;100.00;102260.63;5040156;28;20051;-73
2024/01/07 04:22:10;;;;;;;4.88;3.25;;;;;;;-1.37;100.00;102259.69;5055628;28;20041;-73
2024/01/07 04:24:56;;;;;;;5.90;3.08;;;;;;;-1.37;100.00;102259.69;5056533;28;20052;-74
2024/01/07 04:27:42;;;;;;;5.38;3.22;;;;;;;-1.38;100.00;102270.91;5057921;28;20052;-73
2024/01/07 04:30:28;;;;;;;5.10;2.67;;;;;;;-1.35;100.00;102267.53;5039799;28;20123;-73
2024/01/07 04:33:13;;;;;;;5.82;2.90;;;;;;;-1.37;100.00;102270.97;5050598;28;20055;-73
2024/01/07 04:36:00;;;;;;;6.13;2.72;;;;;;;-1.37;100.00;102280.47;5050014;28;20045;-74
2024/01/07 04:38:46;;;;;;;5.00;2.70;;;;;;;-1.39;100.00;102285.66;5027598;28;20163;-73
2024/01/07 04:41:32;;;;;;;8.93;3.28;;;;;;;-1.36;100.00;102287.47;5064522;28;20052;-73
2024/01/07 04:44:17;;;;;;;4.72;2.72;;;;;;;-1.37;100.00;102296.97;5060415;28;20053;-74
2024/01/07 04:47:03;;;;;;;9.25;2.85;;;;;;;-1.35;100.00;102299.59;5042035;28;20072;-74
2024/01/07 04:49:49;;;;;;;3.95;2.78;;;;;;;-1.38;100.00;102305.59;5052114;28;20044;-73
2024/01/07 04:52:35;;;;;;;5.72;3.00;;;;;;;-1.37;100.00;102306.47;5051558;28;20056;-74
2024/01/07 04:55:21;;;;;;;4.43;2.55;;;;;;;-1.37;100.00;102309.06;5059827;28;20040;-72
2024/01/07 04:58:09;;;;;;;3.50;2.38;;;;;;;-1.34;100.00;102316.06;5053338;28;20161;-74
2024/01/07 05:00:55;;;;;;;4.90;2.50;;;;;;;-1.36;100.00;102326.44;5037278;28;21761;-73
2024/01/07 05:03:41;;;;;;;5.15;2.65;;;;;;;-1.35;100.00;102345.50;5051675;28;20520;-73
2024/01/07 05:06:26;;;;;;;5.50;2.45;;;;;;;-1.35;100.00;102336.00;5036357;28;21827;-74
2024/01/07 05:09:12;;;;;;;7.15;2.20;;;;;;;-1.33;100.00;102343.81;5055114;28;20040;-73
2024/01/07 05:11:58;;;;;;;2.97;2.20;;;;;;;-1.32;100.00;102343.84;5050872;28;20044;-72
2024/01/07 05:14:44;;;;;;;6.05;2.67;;;;;;;-1.32;100.00;102345.59;5038815;28;20163;-73
2024/01/07 05:17:30;;;;;;;6.13;2.50;;;;;;;-1.32;100.00;102343.00;5054728;28;20060;-73
2024/01/07 05:20:16;;;;;;;3.47;2.42;;;;;;;-1.33;100.00;102347.28;5035114;28;20078;-74
2024/01/07 05:23:02;;;;;;;4.53;2.60;;;;;;;-1.33;100.00;102354.19;5054169;28;20052;-73
2024/01/07 05:25:48;;;;;;;5.25;2.25;;;;;;;-1.36;100.00;102352.41;5035974;28;20116;-74
2024/01/07 05:28:34;;;;;;;3.28;2.20;;;;;;;-1.35;100.00;102351.59;5051975;28;20122;-74
2024/01/07 05:31:19;;;;;;;2.67;2.40;;;;;;;-1.35;100.00;102361.97;5052072;28;20125;-73
2024/01/07 05:34:08;;;;;;;3.90;2.30;;;;;;;-1.37;100.00;102363.63;5037671;28;20069;-71
2024/01/07 05:36:53;;;;;;;3.03;1.80;;;;;;;-1.37;100.00;102371.41;5040193;28;20441;-73
2024/01/07 05:39:39;;;;;;;5.72;2.00;;;;;;;-1.37;100.00;102369.72;5053749;28;20048;-73
2024/01/07 05:42:25;;;;;;;2.75;2.00;;;;;;;-1.37;100.00;102371.41;5057758;28;20641;-72
2024/01/07 05:45:11;;;;;;;8.30;2.47;;;;;;;-1.35;100.00;102377.56;5023054;28;20148;-72
2024/01/07 05:47:56;;;;;;;2.88;1.90;;;;;;;-1.36;100.00;102381.00;5050325;28;20072;-73
2024/01/07 05:50:42;;;;;;;4.85;2.55;;;;;;;-1.36;100.00;102383.59;5051086;28;20048;-73
2024/01/07 05:53:28;;;;;;;3.83;2.17;;;;;;;-1.33;100.00;102391.47;5049709;28;20044;-74
2024/01/07 05:56:13;;;;;;;2.92;2.00;;;;;;;-1.32;100.00;102397.56;5051896;28;20098;-73
2024/01/07 05:58:59;;;;;;;2.97;2.05;;;;;;;-1.34;100.00;102397.50;5052810;28;20076;-74
2024/01/07 06:01:45;;;;;;;4.80;2.42;;;;;;;-1.33;100.00;102401.88;5052716;28;22339;-73
2024/01/07 06:04:31;;;;;;;2.75;1.83;;;;;;;-1.32;100.00;102408.81;5038297;28;20048;-72
2024/01/07 06:07:16;;;;;;;3.60;1.80;;;;;;;-1.32;100.00;102408.81;5045805;28;20547;-73
2024/01/07 06:10:02;;;;;;;2.35;1.70;;;;;;;-1.30;100.00;102412.34;5047234;28;20094;-73
2024/01/07 06:12:48;;;;;;;3.65;1.90;;;;;;;-1.30;100.00;102414.94;5053055;28;20740;-74
2024/01/07 06:15:34;;;;;;;4.13;1.90;;;;;;;-1.27;100.00;102425.44;5040129;28;20109;-73
2024/01/07 06:18:19;;;;;;;2.67;1.90;;;;;;;-1.27;100.00;102428.03;5050749;28;20063;-74
2024/01/07 06:21:05;;;;;;;2.05;1.60;;;;;;;-1.27;100.00;102433.25;5047073;28;20237;-73
2024/01/07 06:23:51;;;;;;;1.80;1.60;;;;;;;-1.26;100.00;102426.31;5052090;28;20052;-72
2024/01/07 06:26:37;;;;;;;2.97;1.70;;;;;;;-1.27;100.00;102438.44;5052347;28;20684;-73
2024/01/07 06:29:23;;;;;;;2.65;1.80;;;;;;;-1.27;100.00;102454.03;5056260;28;20040;-72
2024/01/07 06:32:09;;;;;;;2.35;1.70;;;;;;;-1.27;100.00;102448.84;5040966;28;20047;-72
2024/01/07 06:34:55;;;;;;;4.03;1.98;;;;;;;-1.25;100.00;102454.09;5046597;28;20041;-73
2024/01/07 06:37:41;;;;;;;1.98;1.60;;;;;;;-1.26;100.00;102455.78;5054345;28;20036;-74
2024/01/07 06:40:26;;;;;;;2.10;1.77;;;;;;;-1.26;100.00;102461.00;5050651;28;20048;-73
2024/01/07 06:43:12;;;;;;;1.50;1.40;;;;;;;-1.25;100.00;102469.69;5052477;28;20048;-74
2024/01/07 06:46:01;;;;;;;5.05;1.73;;;;;;;-1.26;100.00;102473.09;5035433;28;20048;-73
2024/01/07 06:48:47;;;;;;;3.22;1.67;;;;;;;-1.28;100.00;102483.47;5037294;28;20836;-73
2024/01/07 06:51:32;;;;;;;2.50;1.67;;;;;;;-1.28;100.00;102487.75;5045159;28;20589;-73
2024/01/07 06:54:18;;;;;;;1.90;1.55;;;;;;;-1.27;100.00;102477.44;5037450;28;20098;-73
2024/01/07 06:57:04;;;;;;;3.42;1.73;;;;;;;-1.26;100.00;102480.88;5055611;28;20056;-73
2024/01/07 06:59:53;;;;;;;1.67;1.50;;;;;;;-1.26;100.00;102486.97;5053475;28;20048;-73
2024/01/07 07:02:38;;;;;;;2.70;1.70;;;;;;;-1.27;100.00;102490.41;5057312;28;20049;-73
2024/01/07 07:05:24;;;;;;;2.72;2.08;;;;;;;-1.27;100.00;102495.63;5036904;28;20045;-73
2024/01/07 07:08:10;;;;;;;2.38;1.50;;;;;;;-1.25;100.00;102499.13;5051774;28;20055;-73
2024/01/07 07:10:56;;;;;;;2.30;1.70;;;;;;;-1.24;100.00;102505.22;5056418;28;20491;-73
2024/01/07 07:13:41;;;;;;;3.08;1.83;;;;;;;-1.25;100.00;102513.88;5051037;28;20118;-73
2024/01/07 07:16:27;;;;;;;1.95;1.60;;;;;;;-1.26;100.00;102518.16;5051744;28;20049;-73
2024/01/07 07:19:15;;;;;;;2.20;1.63;;;;;;;-1.27;100.00;102512.91;5055630;28;20060;-73
2024/01/07 07:22:00;;;;;;;1.95;1.45;;;;;;;-1.27;100.00;102525.91;5050448;28;20055;-73
2024/01/07 07:24:46;;;;;;;3.53;1.60;;;;;;;-1.27;100.00;102533.72;5049736;28;20052;-75
2024/01/07 07:27:34;;;;;;;3.38;1.60;;;;;;;-1.27;100.00;102526.81;5049357;28;20147;-73
2024/01/07 07:30:20;;;;;;;1.40;1.20;;;;;;;-1.27;100.00;102533.72;5047185;28;20052;-73
2024/01/07 07:33:06;;;;;;;2.00;1.70;;;;;;;-1.26;100.00;102541.56;5041220;28;20950;-75
2024/01/07 07:35:52;;;;;;;2.65;1.45;;;;;;;-1.25;100.00;102548.53;5057794;28;20122;-73
2024/01/07 07:38:40;;;;;;;4.43;1.80;;;;;;;-1.26;100.00;102554.56;5025782;28;20051;-73
2024/01/07 07:41:26;;;;;;;1.67;1.50;;;;;;;-1.27;100.00;102565.81;5053917;28;20052;-73
2024/01/07 07:44:12;;;;;;;3.10;1.73;;;;;;;-1.27;100.00;102571.00;5033548;28;20457;-72
2024/01/07 07:46:57;;;;;;;2.25;1.77;;;;;;;-1.26;100.00;102582.25;5044864;28;20494;-70
2024/01/07 07:49:43;;;;;;;3.05;1.98;;;;;;;-1.27;100.00;102585.69;5041236;28;20041;-72
2024/01/07 07:52:29;;;;;;;1.67;1.33;;;;;;;-1.28;100.00;102596.94;5052360;28;20041;-73
2024/01/07 07:55:15;;;;;;;3.65;1.50;;;;;;;-1.30;100.00;102599.47;5041220;28;20036;-74
2024/01/07 07:58:01;;;;;;;2.20;1.52;;;;;;;-1.31;100.00;102600.31;5044927;28;20060;-73
2024/01/07 08:00:47;;;;;;;2.30;1.52;;;;;;;-1.32;100.00;102598.56;5045458;28;20131;-73
2024/01/07 08:03:32;;;;;;;2.13;1.23;;;;;;;-1.35;100.00;102606.25;5058290;28;20037;-74
2024/01/07 08:06:18;;;;;;;2.50;1.58;;;;;;;-1.33;100.00;102619.28;5053474;28;20087;-74
2024/01/07 08:09:04;;;;;;;1.58;1.48;;;;;;;-1.33;100.00;102614.97;5053820;28;20443;-76
2024/01/07 08:11:50;;;;;;;2.60;1.60;;;;;;;-1.35;100.00;102626.16;5061884;28;20067;-74
2024/01/07 08:14:35;;;;;;;1.83;1.33;;;;;;;-1.36;100.00;102633.09;5062271;28;20044;-73
2024/01/07 08:17:21;;;;;;;1.40;1.30;;;;;;;-1.40;100.00;102629.50;5062042;28;20033;-74
2024/01/07 08:20:08;;;;;;;2.40;1.60;;;;;;;-1.45;100.00;102643.16;5060785;28;20098;-74
2024/01/07 08:22:54;;;;;;;1.02;1.02;;;;;;;-1.51;100.00;102641.25;5055370;28;20540;-74
2024/01/07 08:25:41;;;;;;;2.30;1.63;;;;;;;-1.56;100.00;102648.88;5058778;28;20060;-74
2024/01/07 08:28:26;;;;;;;1.95;1.40;;;;;;;-1.58;100.00;102658.31;5042302;28;20055;-74
2024/01/07 08:31:13;;;;;;;1.40;1.30;;;;;;;-1.61;100.00;102668.63;5059444;28;20419;-73
2024/01/07 08:33:59;;;;;;;1.75;1.38;;;;;;;-1.65;100.00;102679.72;5048253;28;20047;-74
2024/01/07 08:36:49;;;;;;;3.05;1.50;;;;;;;-1.66;100.00;102677.97;5027189;28;20174;-73
2024/01/07 08:39:34;;;;;;;1.50;1.40;;;;;;;-1.71;100.00;102679.50;5039173;28;20093;-73
2024/01/07 08:42:20;;;;;;;2.72;1.42;;;;;;;-1.70;100.00;102683.91;5038892;28;20455;-73
2024/01/07 08:45:07;;;;;;;2.70;1.65;;;;;;;-1.71;100.00;102692.50;5038709;28;20064;-73
2024/01/07 08:47:53;;;;;;;3.03;1.40;;;;;;;-1.74;100.00;102693.25;5038266;28;20036;-73
2024/01/07 08:50:39;;;;;;;2.20;1.40;;;;;;;-1.73;100.00;102694.16;5038428;28;21037;-73
2024/01/07 08:53:24;;;;;;;1.48;1.38;;;;;;;-1.75;100.00;102703.63;5027672;28;20048;-73
2024/01/07 08:56:12;;;;;;;4.25;1.70;;;;;;;-1.74;100.00;102705.38;5040402;28;20056;-72
2024/01/07 08:58:59;;;;;;;5.40;1.52;;;;;;;-1.74;100.00;102710.59;5038863;28;20040;-72
2024/01/07 09:01:44;;;;;;;3.00;1.60;;;;;;;-1.73;100.00;102713.25;5041628;28;20048;-73
2024/01/07 09:04:30;;;;;;;2.60;1.52;;;;;;;-1.73;100.00;102720.13;5041529;28;20048;-72
2024/01/07 09:07:16;;;;;;;2.50;1.77;;;;;;;-1.72;100.00;102711.50;5039234;28;20045;-72
2024/01/07 09:10:02;;;;;;;1.38;1.20;;;;;;;-1.71;100.00;102721.97;5045912;28;20072;-73
2024/01/07 09:12:49;;;;;;;2.03;1.55;;;;;;;-1.68;100.00;102716.00;5033736;28;20474;-73
2024/01/07 09:15:35;;;;;;;1.67;1.58;;;;;;;-1.62;100.00;102721.41;5027538;28;20209;-71
2024/01/07 09:18:21;;;;;;;2.75;1.48;;;;;;;-1.54;100.00;102726.88;5034978;28;20119;-73
2024/01/07 09:21:07;;;;;;;2.83;1.67;;;;;;;-1.52;100.00;102723.50;5039823;28;20040;-74
2024/01/07 09:23:52;;;;;;;1.38;1.27;;;;;;;-1.46;100.00;102728.03;5046841;28;20486;-73
2024/01/07 09:26:38;;;;;;;1.70;1.60;;;;;;;-1.43;100.00;102725.53;5031496;28;20045;-72
2024/01/07 09:29:24;;;;;;;2.15;1.55;;;;;;;-1.38;100.00;102736.97;5017764;28;20226;-72
2024/01/07 09:32:10;;;;;;;2.72;1.80;;;;;;;-1.36;100.00;102739.63;5045045;28;20647;-73
2024/01/07 09:34:56;;;;;;;2.72;1.90;;;;;;;-1.37;100.00;102753.44;5046561;28;21495;-73
2024/01/07 09:37:42;;;;;;;2.58;1.90;;;;;;;-1.35;100.00;102751.81;5047474;28;20044;-73
2024/01/07 09:40:28;;;;;;;3.42;1.77;;;;;;;-1.33;100.00;102755.31;5045176;28;20032;-73
2024/01/07 09:43:14;;;;;;;2.10;1.45;;;;;;;-1.32;100.00;102761.41;5034018;28;20043;-73
2024/01/07 09:46:00;;;;;;;1.60;1.50;;;;;;;-1.32;100.00;102771.81;5044608;28;20052;-73
2024/01/07 09:48:45;;;;;;;2.30;1.42;;;;;;;-1.30;100.00;102771.00;5044356;28;20045;-73
2024/01/07 09:51:35;;;;;;;3.25;1.30;;;;;;;-1.29;100.00;102771.91;5028631;28;20064;-73
2024/01/07 09:54:23;;;;;;;1.40;1.30;;;;;;;-1.26;100.00;102777.19;5036742;28;20499;-73
2024/01/07 09:57:10;;;;;;;2.70;1.60;;;;;;;-1.23;100.00;102782.53;5033260;28;20109;-73
2024/01/07 09:59:56;;;;;;;2.05;1.75;;;;;;;-1.23;100.00;102775.63;5042934;28;20686;-73
2024/01/07 10:02:42;;;;;;;1.92;1.55;;;;;;;-1.20;100.00;102781.75;5042798;28;20040;-73
2024/01/07 10:05:27;;;;;;;3.13;1.75;;;;;;;-1.17;100.00;102780.16;5031995;28;20057;-73
2024/01/07 10:08:13;;;;;;;2.97;1.70;;;;;;;-1.15;100.00;102788.00;5046401;28;20047;-73
2024/01/07 10:11:01;;;;;;;2.28;1.50;;;;;;;-1.14;100.00;102792.38;5034002;28;20052;-73
2024/01/07 10:13:47;;;;;;;3.13;1.52;;;;;;;-1.12;100.00;102796.78;5046892;28;20037;-73
2024/01/07 10:16:33;;;;;;;1.60;1.50;;;;;;;-1.11;100.00;102808.06;5019840;28;21892;-73
2024/01/07 10:19:23;;;;;;;2.00;1.45;;;;;;;-1.11;100.00;102790.75;5043386;28;21074;-73
2024/01/07 10:22:09;;;;;;;2.90;1.50;;;;;;;-1.07;100.00;102804.75;5042214;28;20120;-73
2024/01/07 10:24:54;;;;;;;1.45;1.30;;;;;;;-1.05;100.00;102803.06;5041973;28;20106;-73
2024/01/07 10:27:40;;;;;;;1.92;1.60;;;;;;;-1.04;100.00;102799.63;5032701;28;20079;-73
2024/01/07 10:30:26;;;;;;;4.85;1.65;;;;;;;-1.04;100.00;102788.38;5043801;28;20154;-73
2024/01/07 10:33:12;;;;;;;2.53;1.58;;;;;;;-1.02;100.00;102798.00;5044990;28;20107;-73
2024/01/07 10:36:05;;;;;;;1.80;1.55;;;;;;;-1.01;100.00;102786.75;5017483;28;20028;-73
2024/01/07 10:38:51;;;;;;;2.58;2.05;;;;;;;-1.02;100.00;102792.78;5042277;28;20090;-73
2024/01/07 10:41:38;;;;;;;2.53;1.83;;;;;;;-1.00;100.00;102792.81;5043160;28;20040;-73
2024/01/07 10:44:29;;;;;;;1.80;1.70;;;;;;;-0.98;100.00;102793.78;5046413;28;20503;-73
2024/01/07 10:47:16;;;;;;;2.45;1.60;;;;;;;-0.98;100.00;102796.38;5040549;28;20918;-73
2024/01/07 10:50:02;;;;;;;2.55;1.90;;;;;;;-0.97;100.00;102805.94;5042867;28;20041;-73
2024/01/07 10:52:58;;;;;;;3.97;1.75;;;;;;;-0.93;100.00;102806.94;5042934;28;20663;-73
2024/01/07 10:55:52;;;;;;;3.33;1.77;;;;;;;-0.92;100.00;102809.59;5030813;28;20486;-72
2024/01/07 10:58:39;;;;;;;3.40;1.80;;;;;;;-0.88;100.00;102808.84;5030689;28;20041;-73
2024/01/07 11:01:25;;;;;;;1.60;1.50;;;;;;;-0.87;100.00;102808.00;5025204;28;21611;-73
2024/01/07 11:04:17;;;;;;;2.78;1.85;;;;;;;-0.88;100.00;102815.78;5043078;28;20048;-72
2024/01/07 11:07:08;;;;;;;2.45;1.70;;;;;;;-0.87;100.00;102817.56;5040953;28;20072;-72
2024/01/07 11:10:00;;;;;;;1.83;1.67;;;;;;;-0.87;100.00;102812.34;5031059;28;20105;-73
2024/01/07 11:13:04;;;;;;;2.78;1.70;;;;;;;-0.91;100.00;102819.16;5044107;28;20088;-72
2024/01/07 11:15:50;;;;;;;2.83;1.90;;;;;;;-0.96;100.00;102810.31;5043047;28;20114;-72
2024/01/07 11:18:52;;;;;;;1.98;1.52;;;;;;;-0.99;100.00;102818.00;5041536;28;20029;-72
2024/01/07 11:21:38;;;;;;;3.45;2.47;;;;;;;-1.02;100.00;102824.00;5027923;28;20053;-73
2024/01/07 11:24:50;;;;;;;3.58;1.90;;;;;;;-1.05;100.00;102829.06;5042443;28;20074;-72
2024/01/07 11:27:36;;;;;;;2.63;1.80;;;;;;;-1.07;100.00;102825.53;5015235;28;20581;-73
2024/01/07 11:30:21;;;;;;;2.35;1.90;;;;;;;-1.06;100.00;102814.31;5038867;28;20548;-73
2024/01/07 11:33:12;;;;;;;2.95;1.92;;;;;;;-1.05;100.00;102823.88;5040891;28;20052;-70
2024/01/07 11:36:03;;;;;;;3.72;2.00;;;;;;;-1.05;100.00;102823.88;5030897;28;20047;-73
2024/01/07 11:38:50;;;;;;;2.28;1.85;;;;;;;-1.05;100.00;102823.00;5035698;28;20044;-73
2024/01/07 11:41:36;;;;;;;5.28;1.90;;;;;;;-1.06;100.00;102824.72;5040218;28;20052;-73
2024/01/07 11:44:22;;;;;;;2.28;1.88;;;;;;;-1.05;100.00;102826.47;5019275;28;20814;-73
2024/01/07 11:47:11;;;;;;;2.63;1.70;;;;;;;-1.01;100.00;102822.25;5042316;28;20074;-72
2024/01/07 11:49:56;;;;;;;3.22;1.77;;;;;;;-1.00;100.00;102821.44;5037908;28;20052;-72
2024/01/07 11:52:42;;;;;;;3.72;2.05;;;;;;;-1.01;100.00;102817.97;5037567;28;20156;-73
2024/01/07 11:55:29;;;;;;;2.03;1.88;;;;;;;-0.98;100.00;102817.19;5015664;28;20484;-73
2024/01/07 11:58:15;;;;;;;3.17;1.88;;;;;;;-0.96;100.00;102824.19;5003626;28;20045;-73
2024/01/07 12:01:01;;;;;;;3.78;2.40;;;;;;;-0.91;100.00;102820.88;4998974;28;20492;-72
2024/01/07 12:03:47;;;;;;;2.65;1.95;;;;;;;-0.88;100.00;102832.25;5003663;28;20449;-73
2024/01/07 12:06:33;;;;;;;2.92;1.80;;;;;;;-0.86;100.00;102824.50;5001144;28;20156;-73
2024/01/07 12:09:18;;;;;;;1.65;1.42;;;;;;;-0.83;100.00;102820.31;5003252;28;20931;-73
2024/01/07 12:12:05;;;;;;;2.88;1.60;;;;;;;-0.82;100.00;102821.16;4999465;28;20041;-73
2024/01/07 12:14:54;;;;;;;2.45;1.70;;;;;;;-0.82;100.00;102813.38;5003350;28;20060;-72
2024/01/07 12:17:40;;;;;;;3.15;1.70;;;;;;;-0.80;100.00;102819.53;5014334;28;21934;-73
2024/01/07 12:20:27;;;;;;;4.03;2.25;;;;;;;-0.79;100.00;102810.88;5005258;28;20100;-73
2024/01/07 12:23:13;;;;;;;2.78;1.98;;;;;;;-0.76;100.00;102815.31;5003731;28;20500;-72
2024/01/07 12:26:07;;;;;;;3.53;2.10;;;;;;;-0.76;100.00;102807.50;5001959;28;20053;-73
2024/01/07 12:28:54;;;;;;;2.85;2.08;;;;;;;-0.75;100.00;102815.38;5006626;28;20041;-73
2024/01/07 12:31:41;;;;;;;2.65;1.65;;;;;;;-0.73;100.00;102812.78;5004242;28;20045;-72
2024/01/07 12:34:27;;;;;;;3.80;2.13;;;;;;;-0.72;100.00;102807.66;4999851;28;20029;-72
2024/01/07 12:37:13;;;;;;;4.53;2.03;;;;;;;-0.71;100.00;102814.63;5002004;28;20120;-73
2024/01/07 12:39:59;;;;;;;3.05;2.08;;;;;;;-0.70;100.00;102816.38;5006235;28;20056;-73
2024/01/07 12:42:45;;;;;;;4.82;2.33;;;;;;;-0.71;100.00;102826.75;5006778;28;20041;-72
2024/01/07 12:45:32;;;;;;;4.07;2.60;;;;;;;-0.76;100.00;102823.13;5010669;28;20044;-73